Terminal Aerodrome Forecast
Issued by NWS

Home | Current Version | Previous Version | Text Only | Print | Product List | Glossary On
Versions: 1 2 3 4 5 6 7 8 9 10 11 12
909
FTUS46 KPDT 280537
TAFRDM
TAF
KRDM 280537Z 2806/2906 17007KT P6SM SCT250
     FM282000 32008G15KT P6SM FEW250
     FM282200 32012G22KT P6SM FEW250
     FM290400 32008KT P6SM FEW250=

USA.gov is the U.S. government's official web portal to all federal, state and local government web resources and services.